Time;durP1;ratioP1;P1;durP2;ratioP2;P2;SDS_P1;SDS_P2;PMS_P1;PMS_P2;Temp;Humidity;BMP_temperature;BMP_pressure;BME280_temperature;BME280_humidity;BME280_pressure;Samples;Min_cycle;Max_cycle;Signal;HPM_P1;HPM_P2
2022/02/22 00:00:20;;;;;;;2.90;1.60;;;;;;;6.08;68.47;95276.16;5034236;28;20186;-78
2022/02/22 00:02:48;;;;;;;2.20;1.20;;;;;;;6.15;68.33;95263.56;5033614;28;20260;-78
2022/02/22 00:05:14;;;;;;;2.80;1.10;;;;;;;6.07;68.23;95268.63;5035051;28;20194;-78
2022/02/22 00:07:43;;;;;;;1.67;1.00;;;;;;;5.98;68.62;95283.13;5034178;28;20202;-77
2022/02/22 00:10:11;;;;;;;2.37;1.03;;;;;;;6.00;68.46;95273.56;5036773;28;20221;-78
2022/02/22 00:12:38;;;;;;;2.67;1.53;;;;;;;6.07;68.12;95284.75;5038246;28;20228;-78
2022/02/22 00:15:06;;;;;;;3.63;1.13;;;;;;;6.15;68.49;95278.88;5036949;28;20194;-79
2022/02/22 00:17:33;;;;;;;2.33;1.30;;;;;;;6.24;67.90;95288.16;5037130;28;20759;-80
2022/02/22 00:20:00;;;;;;;3.03;1.20;;;;;;;6.22;68.19;95285.75;5049230;28;20218;-77
2022/02/22 00:22:26;;;;;;;2.00;1.50;;;;;;;6.18;68.23;95288.78;5050834;28;20201;-79
2022/02/22 00:24:54;;;;;;;1.77;1.00;;;;;;;6.14;68.54;95295.97;5049898;28;20588;-78
2022/02/22 00:27:20;;;;;;;3.40;1.23;;;;;;;6.06;69.27;95295.94;5051377;28;20193;-78
2022/02/22 00:29:47;;;;;;;1.60;1.00;;;;;;;6.04;69.27;95295.28;5049839;28;20256;-79
2022/02/22 00:32:13;;;;;;;2.03;1.30;;;;;;;5.83;70.69;95294.88;5051032;28;20197;-78
2022/02/22 00:34:40;;;;;;;2.73;1.20;;;;;;;5.84;70.52;95302.38;5047242;28;20675;-78
2022/02/22 00:37:06;;;;;;;3.27;1.40;;;;;;;5.95;70.52;95309.03;5037330;28;20198;-77
2022/02/22 00:39:33;;;;;;;2.00;1.30;;;;;;;5.87;71.02;95319.97;5036789;28;20198;-78
2022/02/22 00:42:00;;;;;;;2.03;1.20;;;;;;;5.86;71.31;95317.56;5049937;28;20854;-78
2022/02/22 00:44:29;;;;;;;3.07;1.27;;;;;;;5.89;71.28;95307.06;5050734;28;20233;-78
2022/02/22 00:46:55;;;;;;;3.10;1.30;;;;;;;5.92;71.38;95311.06;5049371;28;20294;-80
2022/02/22 00:49:22;;;;;;;2.77;1.30;;;;;;;5.95;71.75;95311.56;5050484;28;20719;-81
2022/02/22 00:51:48;;;;;;;1.63;0.93;;;;;;;5.94;71.82;95311.72;5049256;28;20209;-81
2022/02/22 00:54:14;;;;;;;2.10;1.07;;;;;;;5.95;71.67;95313.31;5050114;28;20395;-81
2022/02/22 00:56:41;;;;;;;2.53;1.40;;;;;;;5.94;71.60;95315.06;5047358;28;20226;-81
2022/02/22 00:59:09;;;;;;;1.63;1.27;;;;;;;6.01;71.52;95320.34;5036277;28;20190;-77
2022/02/22 01:01:35;;;;;;;1.60;1.03;;;;;;;6.06;71.41;95326.59;5034874;28;20206;-79
2022/02/22 01:04:02;;;;;;;2.37;1.30;;;;;;;6.12;71.03;95326.00;5042150;28;20240;-77
2022/02/22 01:06:28;;;;;;;2.03;1.40;;;;;;;5.98;71.53;95324.00;5036249;28;20572;-77
2022/02/22 01:08:54;;;;;;;2.37;1.30;;;;;;;6.05;70.62;95311.44;5036904;28;20306;-78
2022/02/22 01:11:21;;;;;;;2.83;1.20;;;;;;;5.81;71.60;95325.69;5035952;28;20195;-78
2022/02/22 01:13:47;;;;;;;3.47;1.33;;;;;;;5.76;72.02;95317.69;5037880;28;20700;-79
2022/02/22 01:16:15;;;;;;;2.37;1.30;;;;;;;5.85;71.84;95321.06;5037088;28;20205;-81
2022/02/22 01:18:41;;;;;;;2.87;1.23;;;;;;;5.93;70.97;95315.22;5037648;28;20208;-81
2022/02/22 01:21:08;;;;;;;2.20;1.30;;;;;;;5.71;71.40;95312.25;5037908;28;20194;-81
2022/02/22 01:23:34;;;;;;;3.87;1.47;;;;;;;5.74;71.24;95316.25;5036577;28;20304;-78
2022/02/22 01:26:01;;;;;;;2.37;1.27;;;;;;;5.77;71.87;95324.38;5038320;28;20190;-80
2022/02/22 01:28:27;;;;;;;4.00;1.57;;;;;;;5.80;70.98;95329.19;5037028;28;20224;-81
2022/02/22 01:30:53;;;;;;;2.13;1.13;;;;;;;5.83;70.74;95323.78;5038297;28;20221;-79
2022/02/22 01:33:21;;;;;;;3.03;1.30;;;;;;;5.84;70.81;95324.56;5042562;28;20237;-78
2022/02/22 01:35:47;;;;;;;2.27;1.20;;;;;;;5.69;71.34;95326.13;5049617;28;20208;-79
2022/02/22 01:38:14;;;;;;;2.60;1.37;;;;;;;5.66;71.81;95336.63;5051023;28;20240;-78
2022/02/22 01:40:40;;;;;;;3.07;1.47;;;;;;;5.57;71.87;95330.69;5033878;28;20198;-79
2022/02/22 01:43:07;;;;;;;3.57;1.70;;;;;;;5.76;71.11;95324.56;5036142;28;20234;-79
2022/02/22 01:45:34;;;;;;;3.03;1.40;;;;;;;5.83;71.41;95326.34;5036705;28;20701;-78
2022/02/22 01:48:00;;;;;;;3.80;1.40;;;;;;;5.93;70.64;95328.00;5049370;28;20273;-78
2022/02/22 01:50:28;;;;;;;2.77;1.40;;;;;;;5.85;71.02;95334.66;5050663;28;20229;-79
2022/02/22 01:52:55;;;;;;;1.63;1.10;;;;;;;5.79;71.08;95324.22;5039012;28;20240;-78
2022/02/22 01:55:21;;;;;;;5.07;1.10;;;;;;;5.77;71.51;95338.94;5036234;28;20198;-79
2022/02/22 01:57:48;;;;;;;2.73;1.37;;;;;;;5.74;71.30;95336.69;5037183;28;20264;-78
2022/02/22 02:00:15;;;;;;;3.00;1.20;;;;;;;5.73;71.61;95335.88;5035475;28;20605;-78
2022/02/22 02:02:41;;;;;;;1.80;1.30;;;;;;;5.78;71.27;95348.97;5035682;28;20261;-78
2022/02/22 02:05:09;;;;;;;3.10;1.23;;;;;;;5.78;71.65;95345.63;5036631;28;20190;-79
2022/02/22 02:07:37;;;;;;;3.47;1.53;;;;;;;5.80;71.71;95339.41;5036291;28;20640;-79
2022/02/22 02:10:04;;;;;;;2.53;1.27;;;;;;;5.79;71.85;95342.91;5042938;28;20236;-78
2022/02/22 02:12:36;;;;;;;4.07;1.50;;;;;;;5.84;72.01;95355.22;5048178;28;20205;-79
2022/02/22 02:15:03;;;;;;;4.27;1.40;;;;;;;5.84;71.69;95348.38;5037134;28;20195;-79
2022/02/22 02:17:31;;;;;;;2.33;1.33;;;;;;;5.81;71.63;95356.34;5036076;28;20205;-78
2022/02/22 02:19:58;;;;;;;3.13;1.60;;;;;;;5.79;71.33;95354.88;5036755;28;20302;-78
2022/02/22 02:22:26;;;;;;;4.03;1.40;;;;;;;5.88;71.10;95361.66;5048953;28;20224;-79
2022/02/22 02:24:52;;;;;;;5.13;1.43;;;;;;;5.89;71.52;95368.38;5048099;28;20198;-78
2022/02/22 02:27:19;;;;;;;1.90;1.30;;;;;;;5.87;72.04;95383.03;5049702;28;20190;-79
2022/02/22 02:29:45;;;;;;;2.67;1.30;;;;;;;5.80;72.04;95371.81;5048721;28;20252;-79
2022/02/22 02:32:12;;;;;;;3.73;1.50;;;;;;;5.86;72.28;95369.47;5049400;28;20280;-79
2022/02/22 02:34:38;;;;;;;3.00;1.30;;;;;;;5.82;72.10;95369.91;5048790;28;20264;-79
2022/02/22 02:37:05;;;;;;;4.33;1.80;;;;;;;5.89;71.78;95370.94;5036422;28;20190;-79
2022/02/22 02:39:33;;;;;;;3.07;1.60;;;;;;;5.92;71.96;95374.94;5034697;28;20205;-78
2022/02/22 02:42:01;;;;;;;3.33;1.50;;;;;;;5.74;72.33;95373.25;5035994;28;20198;-79
2022/02/22 02:44:28;;;;;;;4.80;1.60;;;;;;;5.74;72.12;95372.44;5034389;28;20243;-79
2022/02/22 02:46:54;;;;;;;4.30;1.50;;;;;;;5.76;71.96;95380.75;5036352;28;20202;-78
2022/02/22 02:49:21;;;;;;;3.93;1.67;;;;;;;5.81;72.09;95392.09;5035464;28;20189;-78
2022/02/22 02:51:48;;;;;;;3.77;1.67;;;;;;;5.92;71.37;95395.38;5047692;28;20208;-79
2022/02/22 02:54:15;;;;;;;2.97;1.43;;;;;;;6.00;71.62;95398.75;5048220;28;20346;-79
2022/02/22 02:56:42;;;;;;;2.80;1.17;;;;;;;6.00;71.75;95406.44;5044978;28;20203;-79
2022/02/22 02:59:11;;;;;;;3.17;1.43;;;;;;;5.98;71.76;95408.34;5046938;28;20669;-78
2022/02/22 03:01:40;;;;;;;2.60;1.27;;;;;;;6.00;71.97;95411.53;5049160;28;20205;-79
2022/02/22 03:04:07;;;;;;;2.23;1.30;;;;;;;5.98;72.28;95405.78;5035011;28;20225;-79
2022/02/22 03:06:33;;;;;;;2.77;1.53;;;;;;;6.03;72.18;95411.25;5034767;28;20198;-79
2022/02/22 03:09:00;;;;;;;4.83;1.60;;;;;;;6.03;72.18;95410.44;5035561;28;20205;-79
2022/02/22 03:11:27;;;;;;;3.27;1.30;;;;;;;6.04;72.01;95415.41;5034228;28;20300;-79
2022/02/22 03:13:54;;;;;;;4.80;1.57;;;;;;;6.00;72.54;95420.97;5034780;28;20276;-78
2022/02/22 03:16:21;;;;;;;3.20;1.60;;;;;;;6.02;72.40;95424.16;5034227;28;20194;-79
2022/02/22 03:18:48;;;;;;;2.07;1.40;;;;;;;5.96;72.63;95417.13;5037369;28;20247;-78
2022/02/22 03:21:14;;;;;;;2.73;1.57;;;;;;;5.85;72.65;95431.72;5048208;28;20190;-79
2022/02/22 03:23:41;;;;;;;3.77;1.50;;;;;;;5.76;73.17;95447.16;5048029;28;20233;-79
2022/02/22 03:26:07;;;;;;;2.10;1.57;;;;;;;5.78;72.77;95438.38;5035342;28;20212;-79
2022/02/22 03:28:34;;;;;;;4.20;1.67;;;;;;;5.83;72.79;95441.28;5034366;28;20600;-79
2022/02/22 03:31:03;;;;;;;2.67;1.33;;;;;;;5.80;72.84;95445.91;5034365;28;20225;-79
2022/02/22 03:33:30;;;;;;;3.80;1.50;;;;;;;5.78;72.12;95456.25;5031072;28;20257;-79
2022/02/22 03:35:57;;;;;;;3.20;1.40;;;;;;;5.78;71.70;95453.69;5030846;28;20240;-79
2022/02/22 03:38:23;;;;;;;2.83;1.30;;;;;;;5.72;72.10;95459.44;5031263;28;20202;-79
2022/02/22 03:40:50;;;;;;;2.53;1.70;;;;;;;5.84;71.33;95462.53;5030581;28;20197;-79
2022/02/22 03:43:16;;;;;;;3.20;1.30;;;;;;;5.76;71.80;95468.41;5030606;28;20573;-79
2022/02/22 03:45:42;;;;;;;3.10;1.10;;;;;;;5.79;71.23;95478.31;5031478;28;20202;-79
2022/02/22 03:48:10;;;;;;;5.30;1.40;;;;;;;5.88;69.94;95487.66;5030527;28;20233;-79
2022/02/22 03:50:37;;;;;;;3.90;1.53;;;;;;;5.80;70.07;95485.00;5034307;28;20226;-79
2022/02/22 03:53:04;;;;;;;3.20;1.10;;;;;;;5.81;69.94;95503.69;5035170;28;20600;-79
2022/02/22 03:55:30;;;;;;;3.33;1.30;;;;;;;5.92;69.32;95510.38;5033961;28;20206;-78
2022/02/22 03:57:57;;;;;;;1.83;1.13;;;;;;;5.92;67.99;95518.84;5035326;28;20202;-79
2022/02/22 04:00:26;;;;;;;3.30;1.17;;;;;;;5.82;67.68;95523.19;5033831;28;20755;-79
2022/02/22 04:02:53;;;;;;;4.43;2.10;;;;;;;5.85;67.50;95528.81;5033716;28;20260;-78
2022/02/22 04:05:22;;;;;;;5.70;1.53;;;;;;;5.77;67.50;95528.72;5042565;28;20197;-79
2022/02/22 04:07:49;;;;;;;3.53;1.50;;;;;;;5.82;67.28;95533.41;5047819;28;20596;-79
2022/02/22 04:10:16;;;;;;;5.33;1.60;;;;;;;5.83;67.42;95540.91;5047337;28;20221;-78
2022/02/22 04:12:43;;;;;;;3.20;1.53;;;;;;;5.77;67.26;95541.50;5047629;28;20229;-79
2022/02/22 04:15:11;;;;;;;4.30;1.70;;;;;;;5.78;66.88;95547.41;5034332;28;20193;-79
2022/02/22 04:17:38;;;;;;;4.07;1.50;;;;;;;5.80;67.10;95550.63;5042728;28;20895;-80
2022/02/22 04:20:06;;;;;;;3.93;1.53;;;;;;;5.73;67.36;95560.66;5046491;28;20289;-79
2022/02/22 04:22:33;;;;;;;3.20;1.30;;;;;;;5.80;67.60;95556.53;5047178;28;20278;-79
2022/02/22 04:25:00;;;;;;;4.90;1.60;;;;;;;5.78;67.41;95568.66;5046362;28;20629;-79
2022/02/22 04:27:26;;;;;;;3.97;1.43;;;;;;;5.81;68.01;95578.59;5047922;28;20542;-79
2022/02/22 04:29:53;;;;;;;5.83;1.40;;;;;;;5.90;67.54;95589.72;5046696;28;20244;-79
2022/02/22 04:32:19;;;;;;;1.77;1.27;;;;;;;5.90;67.81;95594.81;5047086;28;20588;-78
2022/02/22 04:34:45;;;;;;;4.13;1.53;;;;;;;5.93;67.83;95604.75;5047387;28;20229;-79
2022/02/22 04:37:15;;;;;;;4.10;1.43;;;;;;;5.95;67.91;95612.28;5050559;28;20198;-79
2022/02/22 04:39:44;;;;;;;4.53;1.33;;;;;;;5.98;67.88;95619.63;5042080;28;20202;-79
2022/02/22 04:42:10;;;;;;;2.83;1.40;;;;;;;6.04;67.37;95606.28;5037337;28;20196;-78
2022/02/22 04:44:38;;;;;;;5.27;1.60;;;;;;;6.09;66.74;95606.63;5036334;28;20226;-79
2022/02/22 04:47:05;;;;;;;2.53;1.40;;;;;;;6.06;66.46;95607.72;5038735;28;20201;-78
2022/02/22 04:49:31;;;;;;;5.43;1.73;;;;;;;6.07;66.80;95618.75;5036785;28;20765;-78
2022/02/22 04:51:58;;;;;;;3.30;1.37;;;;;;;6.05;66.56;95618.09;5037731;28;20226;-78
2022/02/22 04:54:24;;;;;;;5.00;1.50;;;;;;;6.06;66.41;95625.63;5036421;28;20284;-80
2022/02/22 04:56:52;;;;;;;4.37;1.40;;;;;;;6.09;66.77;95627.09;5037003;28;20333;-79
2022/02/22 04:59:18;;;;;;;2.73;1.50;;;;;;;6.01;66.89;95627.00;5037105;28;20914;-80
2022/02/22 05:01:45;;;;;;;3.40;1.17;;;;;;;5.94;66.73;95626.00;5036188;28;20190;-79
2022/02/22 05:04:12;;;;;;;5.20;1.60;;;;;;;5.89;66.47;95639.22;5048670;28;20307;-79
2022/02/22 05:06:38;;;;;;;3.40;1.50;;;;;;;5.94;66.63;95641.34;5039446;28;20669;-79
2022/02/22 05:09:05;;;;;;;3.10;1.43;;;;;;;5.85;66.64;95638.66;5036243;28;20199;-79
2022/02/22 05:11:32;;;;;;;2.90;1.47;;;;;;;5.85;66.64;95641.22;5035783;28;20218;-79
2022/02/22 05:14:02;;;;;;;3.00;1.33;;;;;;;5.85;66.86;95648.88;5037327;28;20589;-79
2022/02/22 05:16:29;;;;;;;5.40;1.40;;;;;;;5.80;67.73;95675.81;5030921;28;20259;-79
2022/02/22 05:18:55;;;;;;;4.33;1.50;;;;;;;5.58;71.53;95676.25;5037193;28;20198;-79
2022/02/22 05:21:22;;;;;;;3.40;1.70;;;;;;;5.36;74.65;95683.34;5036417;28;20198;-80
2022/02/22 05:23:48;;;;;;;5.33;1.40;;;;;;;5.33;75.27;95695.56;5036201;28;20229;-79
2022/02/22 05:26:15;;;;;;;1.90;1.10;;;;;;;5.18;76.10;95692.69;5037385;28;20691;-79
2022/02/22 05:28:44;;;;;;;3.80;1.37;;;;;;;5.21;76.58;95694.94;5036303;28;20206;-79
2022/02/22 05:31:12;;;;;;;2.50;1.20;;;;;;;5.04;76.60;95688.81;5037328;28;20214;-79
2022/02/22 05:33:39;;;;;;;2.83;1.50;;;;;;;5.04;76.89;95706.69;5039269;28;20225;-79
2022/02/22 05:36:06;;;;;;;3.70;1.53;;;;;;;5.00;75.85;95695.19;5048595;28;20201;-79
2022/02/22 05:38:33;;;;;;;3.60;1.33;;;;;;;4.95;75.41;95701.63;5046005;28;20198;-79
2022/02/22 05:40:59;;;;;;;3.97;1.20;;;;;;;4.90;74.87;95702.03;5036609;28;20612;-80
2022/02/22 05:43:26;;;;;;;4.10;1.47;;;;;;;4.73;74.71;95702.75;5029014;28;20428;-80
2022/02/22 05:45:54;;;;;;;3.67;1.40;;;;;;;4.82;74.39;95699.38;5024478;28;20677;-77
2022/02/22 05:48:22;;;;;;;5.00;1.20;;;;;;;4.84;74.13;95700.84;5032427;28;20202;-79
2022/02/22 05:50:49;;;;;;;4.60;1.60;;;;;;;4.85;73.15;95712.66;5039634;28;20341;-78
2022/02/22 05:53:15;;;;;;;3.80;1.50;;;;;;;4.85;73.71;95705.00;5028470;28;20233;-79
2022/02/22 05:55:42;;;;;;;2.50;1.13;;;;;;;4.95;72.67;95712.66;5032828;28;20221;-79
2022/02/22 05:58:08;;;;;;;2.57;1.30;;;;;;;4.96;72.66;95716.00;5032043;28;20205;-79
2022/02/22 06:00:35;;;;;;;3.83;1.50;;;;;;;5.00;72.57;95713.03;5030766;28;20198;-79
2022/02/22 06:03:01;;;;;;;4.23;1.37;;;;;;;4.95;72.77;95717.75;5032674;28;20241;-79
2022/02/22 06:05:29;;;;;;;5.50;1.30;;;;;;;4.85;72.69;95712.66;5033481;28;20205;-79
2022/02/22 06:07:56;;;;;;;2.27;1.20;;;;;;;4.85;72.16;95715.19;5032508;28;20198;-77
2022/02/22 06:10:22;;;;;;;2.43;1.33;;;;;;;4.88;71.12;95718.44;5033626;28;20209;-78
2022/02/22 06:12:49;;;;;;;5.57;1.57;;;;;;;4.86;70.15;95732.13;5049247;28;20233;-78
2022/02/22 06:15:15;;;;;;;5.07;1.63;;;;;;;4.88;70.16;95742.19;5039238;28;20577;-79
2022/02/22 06:17:44;;;;;;;6.83;1.90;;;;;;;4.84;69.93;95756.16;5032532;28;20198;-78
2022/02/22 06:20:13;;;;;;;7.10;1.53;;;;;;;4.87;70.53;95758.44;5032471;28;20210;-79
2022/02/22 06:22:41;;;;;;;6.03;1.63;;;;;;;4.95;69.60;95763.66;5031764;28;20289;-78
2022/02/22 06:25:09;;;;;;;3.33;1.70;;;;;;;4.94;69.73;95763.81;5032869;28;20201;-78
2022/02/22 06:27:46;;;;;;;5.93;1.70;;;;;;;4.97;69.74;95768.63;5032844;28;20661;-78
2022/02/22 06:30:12;;;;;;;6.50;1.60;;;;;;;4.97;70.34;95777.09;5033421;28;20292;-78
2022/02/22 06:32:39;;;;;;;4.83;1.57;;;;;;;4.99;70.03;95776.97;5039014;28;20236;-80
2022/02/22 06:35:06;;;;;;;3.87;1.50;;;;;;;4.98;70.57;95780.44;5031938;28;20584;-79
2022/02/22 06:37:33;;;;;;;7.23;3.10;;;;;;;5.03;71.17;95776.53;5032456;28;20201;-79
2022/02/22 06:40:01;;;;;;;6.53;2.77;;;;;;;4.99;70.84;95787.16;5031867;28;20236;-79
2022/02/22 06:42:27;;;;;;;12.17;3.60;;;;;;;5.05;70.76;95795.06;5031788;28;20205;-79
2022/02/22 06:44:53;;;;;;;5.50;1.90;;;;;;;5.10;70.77;95802.31;5031855;28;20198;-79
2022/02/22 06:47:20;;;;;;;4.37;1.73;;;;;;;5.02;70.68;95802.19;5031441;28;20199;-79
2022/02/22 06:49:46;;;;;;;4.60;1.50;;;;;;;5.14;70.30;95799.34;5032023;28;20201;-79
2022/02/22 06:52:13;;;;;;;4.10;1.60;;;;;;;5.08;70.64;95804.19;5032143;28;20226;-79
2022/02/22 06:54:39;;;;;;;5.30;1.60;;;;;;;5.04;70.67;95798.56;5032116;28;20237;-79
2022/02/22 06:57:07;;;;;;;3.27;1.40;;;;;;;5.12;70.67;95813.19;5031665;28;20202;-79
2022/02/22 06:59:35;;;;;;;2.80;1.50;;;;;;;5.51;69.74;95819.00;5031706;28;20201;-79
2022/02/22 07:02:01;;;;;;;3.53;1.70;;;;;;;5.87;67.98;95822.50;5031417;28;20198;-79
2022/02/22 07:04:29;;;;;;;6.30;1.83;;;;;;;5.81;67.67;95835.81;5030860;28;20242;-78
2022/02/22 07:06:55;;;;;;;6.20;1.90;;;;;;;5.68;68.33;95838.69;5031276;28;20202;-79
2022/02/22 07:09:22;;;;;;;4.63;1.47;;;;;;;5.70;68.14;95844.47;5035401;28;20687;-79
2022/02/22 07:11:49;;;;;;;4.57;1.70;;;;;;;5.73;67.73;95849.31;5034278;28;20739;-79
2022/02/22 07:14:15;;;;;;;4.53;1.70;;;;;;;5.60;67.82;95860.75;5034196;28;20237;-79
2022/02/22 07:16:43;;;;;;;5.00;1.77;;;;;;;5.51;67.84;95865.78;5045468;28;20216;-79
2022/02/22 07:19:09;;;;;;;5.90;2.03;;;;;;;6.13;66.58;95868.69;5045755;28;20205;-79
2022/02/22 07:21:36;;;;;;;4.20;1.73;;;;;;;6.68;64.68;95874.53;5040987;28;20202;-79
2022/02/22 07:24:02;;;;;;;5.80;1.77;;;;;;;6.99;62.60;95869.84;5034468;28;20230;-78
2022/02/22 07:26:29;;;;;;;25.03;14.97;;;;;;;7.53;61.59;95878.25;5034349;28;20584;-79
2022/02/22 07:28:55;;;;;;;6.60;4.03;;;;;;;7.93;59.62;95885.38;5033450;28;20217;-78
2022/02/22 07:31:22;;;;;;;4.23;1.70;;;;;;;8.05;58.95;95880.81;5034168;28;20221;-79
2022/02/22 07:33:49;;;;;;;4.70;1.93;;;;;;;8.35;57.31;95879.50;5033295;28;20233;-79
2022/02/22 07:36:16;;;;;;;5.50;2.10;;;;;;;8.65;56.70;95881.53;5035216;28;20255;-80
2022/02/22 07:38:42;;;;;;;3.73;1.80;;;;;;;8.71;56.02;95880.88;5034199;28;20202;-80
2022/02/22 07:41:09;;;;;;;5.20;1.40;;;;;;;8.86;55.51;95896.47;5034631;28;20198;-79
2022/02/22 07:43:35;;;;;;;5.57;2.00;;;;;;;8.99;55.29;95884.78;5033015;28;20234;-80
2022/02/22 07:46:02;;;;;;;3.67;1.60;;;;;;;9.00;55.42;95894.09;5044666;28;20846;-79
2022/02/22 07:48:28;;;;;;;4.37;1.63;;;;;;;9.29;54.80;95905.66;5047951;28;20206;-79
2022/02/22 07:50:56;;;;;;;7.20;1.83;;;;;;;9.22;54.49;95908.09;5047969;28;20202;-79
2022/02/22 07:53:22;;;;;;;5.63;1.63;;;;;;;9.26;54.85;95898.28;5031097;28;20237;-79
2022/02/22 07:55:48;;;;;;;4.03;1.50;;;;;;;9.38;54.20;95912.44;5030319;28;20202;-79
2022/02/22 07:58:16;;;;;;;4.90;1.80;;;;;;;9.45;53.87;95917.72;5029768;28;20623;-79
2022/02/22 08:00:42;;;;;;;3.47;1.57;;;;;;;8.69;55.09;95916.16;5029773;28;20194;-79
2022/02/22 08:03:08;;;;;;;5.47;1.83;;;;;;;8.13;57.18;95929.56;5029798;28;20234;-80
2022/02/22 08:05:35;;;;;;;6.37;1.40;;;;;;;7.50;58.62;95937.50;5024582;28;20258;-79
2022/02/22 08:08:05;;;;;;;5.13;1.63;;;;;;;7.47;59.50;95945.47;5037317;28;20201;-79
2022/02/22 08:10:32;;;;;;;3.27;1.67;;;;;;;7.94;58.77;95944.19;5048383;28;20280;-79
2022/02/22 08:12:58;;;;;;;2.90;1.63;;;;;;;8.70;56.31;95943.44;5035208;28;20241;-79
2022/02/22 08:15:24;;;;;;;3.30;1.97;;;;;;;8.77;55.51;95953.91;5039113;28;20271;-79
2022/02/22 08:17:51;;;;;;;3.77;1.80;;;;;;;8.79;54.86;95957.94;5038042;28;20201;-79
2022/02/22 08:20:17;;;;;;;3.33;1.63;;;;;;;9.10;54.20;95962.50;5035168;28;20876;-78
2022/02/22 08:22:44;;;;;;;4.03;1.73;;;;;;;9.21;53.68;95968.16;5035555;28;20229;-79
2022/02/22 08:25:12;;;;;;;4.07;1.60;;;;;;;9.63;53.19;95967.19;5037649;28;20202;-80
2022/02/22 08:27:39;;;;;;;3.47;1.40;;;;;;;9.60;52.99;95963.19;5040879;28;20209;-79
2022/02/22 08:30:06;;;;;;;5.53;2.00;;;;;;;9.67;52.82;95968.47;5036384;28;20670;-80
2022/02/22 08:32:33;;;;;;;5.67;2.30;;;;;;;9.63;52.04;95962.84;5035604;28;20708;-80
2022/02/22 08:34:59;;;;;;;3.23;1.60;;;;;;;10.13;51.54;95961.84;5036388;28;20220;-79
2022/02/22 08:37:25;;;;;;;3.97;1.63;;;;;;;10.49;49.51;95951.94;5036892;28;20198;-78
2022/02/22 08:39:52;;;;;;;3.93;1.80;;;;;;;10.81;49.07;95975.94;5035111;28;20198;-80
2022/02/22 08:42:20;;;;;;;7.67;1.80;;;;;;;10.95;48.38;95976.06;5036854;28;20213;-80
2022/02/22 08:44:46;;;;;;;2.60;1.43;;;;;;;10.98;48.07;95967.16;5035800;28;20220;-79
2022/02/22 08:47:13;;;;;;;3.33;1.50;;;;;;;11.22;47.29;95979.13;5036933;28;20244;-79
2022/02/22 08:49:39;;;;;;;2.20;1.43;;;;;;;11.01;47.56;95990.03;5035516;28;20726;-80
2022/02/22 08:52:06;;;;;;;3.30;1.57;;;;;;;10.94;48.05;95983.97;5035474;28;20242;-80
2022/02/22 08:54:33;;;;;;;3.30;1.40;;;;;;;10.98;48.02;95991.16;5034964;28;20226;-80
2022/02/22 08:56:59;;;;;;;4.20;1.40;;;;;;;10.86;48.42;95992.53;5036197;28;20272;-80
2022/02/22 08:59:27;;;;;;;2.63;1.40;;;;;;;10.41;49.30;96003.44;5034983;28;20205;-79
2022/02/22 09:01:53;;;;;;;3.33;1.47;;;;;;;9.76;49.24;96000.94;5035367;28;20256;-79
2022/02/22 09:04:20;;;;;;;3.30;1.57;;;;;;;9.43;50.14;96023.22;5034266;28;20638;-80
2022/02/22 09:06:46;;;;;;;3.37;1.70;;;;;;;9.13;50.74;96034.91;5036289;28;20202;-80
2022/02/22 09:09:12;;;;;;;4.20;1.57;;;;;;;8.63;51.60;96040.03;5036521;28;20232;-79
2022/02/22 09:11:39;;;;;;;4.47;1.47;;;;;;;8.06;53.71;96047.34;5036471;28;20226;-79
2022/02/22 09:14:05;;;;;;;2.70;1.30;;;;;;;7.33;56.84;96044.13;5036492;28;20294;-80
2022/02/22 09:16:33;;;;;;;3.43;1.20;;;;;;;7.04;58.75;96044.31;5039289;28;20193;-78
2022/02/22 09:19:00;;;;;;;3.07;1.57;;;;;;;6.82;59.86;96032.69;5047266;28;20227;-79
2022/02/22 09:21:27;;;;;;;2.80;1.47;;;;;;;6.69;59.80;96039.09;5034765;28;20198;-79
2022/02/22 09:23:53;;;;;;;3.07;1.77;;;;;;;6.65;59.84;96050.56;5037435;28;20308;-79
2022/02/22 09:26:20;;;;;;;5.77;1.80;;;;;;;6.66;60.98;96052.97;5047773;28;20205;-79
2022/02/22 09:28:47;;;;;;;3.03;1.20;;;;;;;6.79;61.75;96068.81;5033754;28;20221;-78
2022/02/22 09:31:13;;;;;;;2.63;1.73;;;;;;;7.23;61.78;96059.56;5036398;28;20209;-78
2022/02/22 09:33:41;;;;;;;4.03;1.90;;;;;;;7.94;59.69;96059.56;5034463;28;20647;-79
2022/02/22 09:36:08;;;;;;;4.40;1.80;;;;;;;8.62;57.70;96070.00;5036539;28;20814;-79
2022/02/22 09:38:35;;;;;;;4.10;1.77;;;;;;;8.94;56.19;96064.22;5034864;28;20198;-79
2022/02/22 09:41:01;;;;;;;3.03;1.40;;;;;;;9.39;55.33;96070.00;5036241;28;20210;-79
2022/02/22 09:43:28;;;;;;;4.60;1.70;;;;;;;9.66;53.84;96082.56;5035291;28;20667;-78
2022/02/22 09:45:56;;;;;;;2.97;1.60;;;;;;;9.20;53.97;96071.06;5036110;28;20202;-79
2022/02/22 09:48:23;;;;;;;6.17;2.07;;;;;;;8.63;55.13;96087.03;5034919;28;20252;-79
2022/02/22 09:50:51;;;;;;;3.90;1.60;;;;;;;8.24;56.16;96086.59;5037673;28;20194;-79
2022/02/22 09:53:17;;;;;;;3.17;1.60;;;;;;;7.96;54.73;96087.63;5047098;28;20229;-79
2022/02/22 09:55:44;;;;;;;3.20;1.40;;;;;;;8.01;55.04;96105.16;5050434;28;20194;-80
2022/02/22 09:58:10;;;;;;;4.37;1.63;;;;;;;7.97;54.22;96102.06;5041862;28;20634;-78
2022/02/22 10:00:37;;;;;;;4.67;1.70;;;;;;;8.11;54.36;96103.28;5037763;28;20198;-79
2022/02/22 10:03:04;;;;;;;2.93;1.40;;;;;;;8.25;54.73;96108.72;5032700;28;20619;-78
2022/02/22 10:05:30;;;;;;;4.80;1.63;;;;;;;8.72;53.94;96100.69;5037242;28;20611;-78
2022/02/22 10:07:59;;;;;;;5.70;1.70;;;;;;;9.13;52.59;96106.84;5035841;28;20206;-79
2022/02/22 10:10:34;;;;;;;3.10;1.57;;;;;;;9.84;51.51;96106.38;5032779;28;20657;-78
2022/02/22 10:13:01;;;;;;;4.03;1.93;;;;;;;9.77;51.33;96091.75;5034261;28;20237;-78
2022/02/22 10:15:28;;;;;;;4.37;1.67;;;;;;;9.42;52.53;96111.59;5030298;28;20208;-78
2022/02/22 10:17:55;;;;;;;3.87;1.70;;;;;;;9.40;52.24;96112.72;5046133;28;20189;-79
2022/02/22 10:20:21;;;;;;;5.93;2.80;;;;;;;9.25;52.85;96108.16;5035515;28;20548;-78
2022/02/22 10:22:50;;;;;;;3.90;1.63;;;;;;;9.42;51.56;96100.53;5034233;28;20229;-79
2022/02/22 10:25:18;;;;;;;11.13;7.60;;;;;;;9.58;50.51;96116.00;5046507;28;20209;-80
2022/02/22 10:27:47;;;;;;;6.00;2.37;;;;;;;9.68;49.51;96124.34;5045964;28;20193;-79
2022/02/22 10:30:38;;;;;;;3.83;1.57;;;;;;;9.35;48.86;96113.19;5046646;28;20582;-78
2022/02/22 10:33:10;;;;;;;7.30;1.87;;;;;;;9.27;48.95;96113.94;5045524;28;20229;-78
2022/02/22 10:35:37;;;;;;;2.90;1.43;;;;;;;9.51;49.04;96115.78;5049148;28;20602;-79
2022/02/22 10:38:12;;;;;;;3.30;1.40;;;;;;;10.11;47.83;96113.00;5044393;28;20195;-79
2022/02/22 10:40:41;;;;;;;3.73;1.50;;;;;;;10.61;47.48;96120.56;5033846;28;20205;-79
2022/02/22 10:43:08;;;;;;;5.07;1.80;;;;;;;10.94;45.95;96110.19;5031392;28;20404;-79
2022/02/22 10:45:34;;;;;;;2.43;1.57;;;;;;;10.73;45.82;96108.16;5034368;28;20240;-78
2022/02/22 10:48:01;;;;;;;2.17;1.33;;;;;;;10.26;46.62;96115.75;5034869;28;20207;-80
2022/02/22 10:50:31;;;;;;;4.27;1.63;;;;;;;9.91;46.83;96111.69;5033880;28;20198;-79
2022/02/22 10:52:58;;;;;;;4.63;1.60;;;;;;;9.72;48.40;96120.50;5046256;28;20283;-78
2022/02/22 10:55:25;;;;;;;3.17;1.50;;;;;;;9.69;48.46;96118.25;5051093;28;20205;-78
2022/02/22 10:57:53;;;;;;;4.40;1.87;;;;;;;9.40;48.99;96126.38;5037792;28;20198;-79
2022/02/22 11:00:20;;;;;;;2.53;1.20;;;;;;;9.25;48.61;96115.88;5030829;28;20194;-79
2022/02/22 11:02:47;;;;;;;9.60;6.37;;;;;;;9.30;48.79;96125.69;5030406;28;20608;-79
2022/02/22 11:05:14;;;;;;;7.57;4.03;;;;;;;9.11;48.96;96111.31;5023596;28;20259;-79
2022/02/22 11:07:41;;;;;;;5.50;1.67;;;;;;;8.85;49.40;96113.91;5037908;28;20217;-79
2022/02/22 11:10:12;;;;;;;1.67;1.27;;;;;;;8.77;50.04;96107.94;5035592;28;20213;-79
2022/02/22 11:12:52;;;;;;;4.53;1.50;;;;;;;8.88;50.06;96110.25;5048515;28;20228;-79
2022/02/22 11:15:33;;;;;;;2.93;1.40;;;;;;;8.80;50.10;96118.72;5035395;28;20197;-79
2022/02/22 11:18:03;;;;;;;4.20;1.80;;;;;;;8.91;49.41;96110.75;5034802;28;20194;-79
2022/02/22 11:20:31;;;;;;;3.73;1.30;;;;;;;9.18;49.22;96111.50;5033714;28;20202;-79
2022/02/22 11:22:58;;;;;;;4.73;1.60;;;;;;;9.30;48.57;96115.41;5034214;28;20229;-79
2022/02/22 11:25:30;;;;;;;2.67;1.20;;;;;;;9.27;48.18;96113.94;5045681;28;20989;-79
2022/02/22 11:28:05;;;;;;;2.60;1.37;;;;;;;9.26;48.34;96111.53;5042311;28;20276;-79
2022/02/22 11:30:36;;;;;;;2.03;1.40;;;;;;;9.29;49.25;96109.47;5035406;28;20197;-78
2022/02/22 11:33:06;;;;;;;2.20;1.30;;;;;;;9.44;48.63;96114.00;5047222;28;20229;-79
2022/02/22 11:35:46;;;;;;;2.93;1.27;;;;;;;9.72;47.32;96107.66;5028199;28;20248;-79
2022/02/22 11:38:12;;;;;;;2.93;1.60;;;;;;;9.71;47.18;96106.03;5034881;28;20206;-79
2022/02/22 11:40:40;;;;;;;2.97;1.40;;;;;;;9.79;47.77;96107.84;5043136;28;20285;-78